sensor_id;sensor_type;location;lat;lon;timestamp;pressure;altitude;pressure_sealevel;temperature;humidity
60719;BME280;46567;51.660;5.824;2023-06-01T00:02:10;131770.0;;;190.6;81.5
60719;BME280;46567;51.660;5.824;2023-06-01T00:07:10;131810.0;;;190.6;83.0
60719;BME280;46567;51.660;5.824;2023-06-01T00:12:10;131850.0;;;190.6;83.5
60719;BME280;46567;51.660;5.824;2023-06-01T00:17:10;131860.0;;;190.6;83.5
60719;BME280;46567;51.660;5.824;2023-06-01T00:22:11;131880.0;;;190.6;83.5
60719;BME280;46567;51.660;5.824;2023-06-01T00:27:10;131890.0;;;190.6;84.0
60719;BME280;46567;51.660;5.824;2023-06-01T00:32:10;131900.0;;;190.6;84.0
60719;BME280;46567;51.660;5.824;2023-06-01T00:37:10;131910.0;;;190.6;84.0
60719;BME280;46567;51.660;5.824;2023-06-01T00:42:11;131940.0;;;190.6;85.0
60719;BME280;46567;51.660;5.824;2023-06-01T00:47:11;131980.0;;;190.6;85.0
60719;BME280;46567;51.660;5.824;2023-06-01T00:52:11;132000.0;;;190.6;85.0
60719;BME280;46567;51.660;5.824;2023-06-01T00:57:10;132040.0;;;190.6;86.0
60719;BME280;46567;51.660;5.824;2023-06-01T01:02:10;132080.0;;;190.6;87.0
60719;BME280;46567;51.660;5.824;2023-06-01T01:07:19;132100.0;;;190.6;87.0
60719;BME280;46567;51.660;5.824;2023-06-01T01:12:21;132130.0;;;190.6;88.0
60719;BME280;46567;51.660;5.824;2023-06-01T01:17:26;132160.0;;;190.6;88.0
60719;BME280;46567;51.660;5.824;2023-06-01T01:22:47;132190.0;;;190.6;88.5
60719;BME280;46567;51.660;5.824;2023-06-01T01:32:11;132240.0;;;190.6;90.5
60719;BME280;46567;51.660;5.824;2023-06-01T01:37:11;132270.0;;;190.6;91.5
60719;BME280;46567;51.660;5.824;2023-06-01T01:42:10;132290.0;;;190.6;92.0
60719;BME280;46567;51.660;5.824;2023-06-01T01:47:21;132280.0;;;190.6;92.0
60719;BME280;46567;51.660;5.824;2023-06-01T01:52:15;132270.0;;;190.6;92.0
60719;BME280;46567;51.660;5.824;2023-06-01T01:57:12;132280.0;;;190.6;91.5
60719;BME280;46567;51.660;5.824;2023-06-01T02:02:11;132270.0;;;190.6;91.5
60719;BME280;46567;51.660;5.824;2023-06-01T02:07:11;132250.0;;;190.6;91.0
60719;BME280;46567;51.660;5.824;2023-06-01T02:12:10;132260.0;;;190.6;91.0
60719;BME280;46567;51.660;5.824;2023-06-01T02:17:10;132260.0;;;190.6;91.0
60719;BME280;46567;51.660;5.824;2023-06-01T02:22:11;132260.0;;;190.6;92.5
60719;BME280;46567;51.660;5.824;2023-06-01T02:27:11;132270.0;;;190.6;92.0
60719;BME280;46567;51.660;5.824;2023-06-01T02:32:10;132240.0;;;190.6;92.0
60719;BME280;46567;51.660;5.824;2023-06-01T02:37:10;132230.0;;;190.6;92.0
60719;BME280;46567;51.660;5.824;2023-06-01T02:42:10;132240.0;;;190.6;92.0
60719;BME280;46567;51.660;5.824;2023-06-01T02:47:10;132250.0;;;190.6;92.5
60719;BME280;46567;51.660;5.824;2023-06-01T02:52:10;132250.0;;;190.6;92.5
60719;BME280;46567;51.660;5.824;2023-06-01T02:57:10;132250.0;;;190.6;92.5
60719;BME280;46567;51.660;5.824;2023-06-01T03:02:10;132250.0;;;190.6;92.5
60719;BME280;46567;51.660;5.824;2023-06-01T03:07:11;132250.0;;;190.6;93.5
60719;BME280;46567;51.660;5.824;2023-06-01T03:12:10;132240.0;;;190.6;93.5
60719;BME280;46567;51.660;5.824;2023-06-01T03:17:10;132250.0;;;190.6;93.0
60719;BME280;46567;51.660;5.824;2023-06-01T03:22:10;132250.0;;;190.6;93.0
60719;BME280;46567;51.660;5.824;2023-06-01T03:27:10;132230.0;;;190.6;93.0
60719;BME280;46567;51.660;5.824;2023-06-01T03:32:10;132250.0;;;190.6;93.0
60719;BME280;46567;51.660;5.824;2023-06-01T03:37:10;132260.0;;;190.6;93.0
60719;BME280;46567;51.660;5.824;2023-06-01T03:42:11;132260.0;;;190.6;93.0
60719;BME280;46567;51.660;5.824;2023-06-01T03:47:10;132230.0;;;190.6;92.5
60719;BME280;46567;51.660;5.824;2023-06-01T03:52:11;132250.0;;;190.6;92.0
60719;BME280;46567;51.660;5.824;2023-06-01T03:57:10;132250.0;;;190.6;92.0
60719;BME280;46567;51.660;5.824;2023-06-01T04:02:11;132280.0;;;190.6;92.0
60719;BME280;46567;51.660;5.824;2023-06-01T04:07:11;132290.0;;;190.6;92.0
60719;BME280;46567;51.660;5.824;2023-06-01T04:12:10;132290.0;;;190.6;92.0
60719;BME280;46567;51.660;5.824;2023-06-01T04:17:11;132300.0;;;190.6;92.0
60719;BME280;46567;51.660;5.824;2023-06-01T04:22:10;132280.0;;;190.6;92.5
60719;BME280;46567;51.660;5.824;2023-06-01T04:27:10;132290.0;;;190.6;92.5
60719;BME280;46567;51.660;5.824;2023-06-01T04:32:11;132290.0;;;190.6;92.5
60719;BME280;46567;51.660;5.824;2023-06-01T04:37:10;132290.0;;;190.6;92.0
60719;BME280;46567;51.660;5.824;2023-06-01T04:42:11;132280.0;;;190.6;91.5
60719;BME280;46567;51.660;5.824;2023-06-01T04:47:10;132270.0;;;190.6;91.5
60719;BME280;46567;51.660;5.824;2023-06-01T04:52:10;132260.0;;;190.6;91.0
60719;BME280;46567;51.660;5.824;2023-06-01T04:57:11;132250.0;;;190.6;91.0
60719;BME280;46567;51.660;5.824;2023-06-01T05:02:11;132220.0;;;190.6;91.0
60719;BME280;46567;51.660;5.824;2023-06-01T05:07:10;132230.0;;;190.6;90.5
60719;BME280;46567;51.660;5.824;2023-06-01T05:12:10;132220.0;;;190.6;90.0
60719;BME280;46567;51.660;5.824;2023-06-01T05:17:10;132200.0;;;190.6;90.0
60719;BME280;46567;51.660;5.824;2023-06-01T05:22:10;132170.0;;;190.6;89.5
60719;BME280;46567;51.660;5.824;2023-06-01T05:27:11;132140.0;;;190.6;89.5
60719;BME280;46567;51.660;5.824;2023-06-01T05:32:11;132120.0;;;190.6;89.0
60719;BME280;46567;51.660;5.824;2023-06-01T05:37:11;132100.0;;;190.6;89.0
60719;BME280;46567;51.660;5.824;2023-06-01T05:42:10;132080.0;;;190.6;88.5
60719;BME280;46567;51.660;5.824;2023-06-01T05:47:11;132060.0;;;190.6;88.0
60719;BME280;46567;51.660;5.824;2023-06-01T05:52:11;132070.0;;;190.6;88.0
60719;BME280;46567;51.660;5.824;2023-06-01T05:57:10;132050.0;;;190.6;88.0
60719;BME280;46567;51.660;5.824;2023-06-01T06:02:11;132040.0;;;190.6;86.5
60719;BME280;46567;51.660;5.824;2023-06-01T06:07:11;132030.0;;;190.6;86.0
60719;BME280;46567;51.660;5.824;2023-06-01T06:12:11;132040.0;;;190.6;86.0
60719;BME280;46567;51.660;5.824;2023-06-01T06:17:11;132020.0;;;190.6;86.0
60719;BME280;46567;51.660;5.824;2023-06-01T06:22:11;131990.0;;;190.6;86.0
60719;BME280;46567;51.660;5.824;2023-06-01T06:27:11;131950.0;;;190.6;85.5
60719;BME280;46567;51.660;5.824;2023-06-01T06:32:10;131880.0;;;190.6;84.5
60719;BME280;46567;51.660;5.824;2023-06-01T06:37:11;131800.0;;;190.6;84.0
60719;BME280;46567;51.660;5.824;2023-06-01T06:42:11;131780.0;;;190.6;82.5
60719;BME280;46567;51.660;5.824;2023-06-01T06:47:11;131800.0;;;190.6;81.5
60719;BME280;46567;51.660;5.824;2023-06-01T06:52:11;131820.0;;;190.6;81.0
60719;BME280;46567;51.660;5.824;2023-06-01T06:57:11;131850.0;;;190.6;81.5
60719;BME280;46567;51.660;5.824;2023-06-01T07:02:11;131770.0;;;190.6;81.5
60719;BME280;46567;51.660;5.824;2023-06-01T07:07:11;131680.0;;;190.6;79.5
60719;BME280;46567;51.660;5.824;2023-06-01T07:12:11;131620.0;;;190.6;78.0
60719;BME280;46567;51.660;5.824;2023-06-01T07:17:11;131570.0;;;190.6;77.5
60719;BME280;46567;51.660;5.824;2023-06-01T07:22:11;131560.0;;;190.6;76.5
60719;BME280;46567;51.660;5.824;2023-06-01T07:27:11;131540.0;;;190.6;76.0
60719;BME280;46567;51.660;5.824;2023-06-01T07:32:11;131460.0;;;190.6;76.5
60719;BME280;46567;51.660;5.824;2023-06-01T07:37:11;131450.0;;;190.6;74.0
60719;BME280;46567;51.660;5.824;2023-06-01T07:42:11;131460.0;;;190.6;74.5
60719;BME280;46567;51.660;5.824;2023-06-01T07:47:11;131450.0;;;190.6;74.0
60719;BME280;46567;51.660;5.824;2023-06-01T07:52:11;131410.0;;;190.6;73.0
60719;BME280;46567;51.660;5.824;2023-06-01T07:57:11;131380.0;;;190.6;71.5
60719;BME280;46567;51.660;5.824;2023-06-01T08:02:11;131280.0;;;190.6;71.0
60719;BME280;46567;51.660;5.824;2023-06-01T08:07:11;131220.0;;;190.6;69.0
60719;BME280;46567;51.660;5.824;2023-06-01T08:12:11;131200.0;;;190.6;68.0
60719;BME280;46567;51.660;5.824;2023-06-01T08:17:11;131170.0;;;190.6;68.5
60719;BME280;46567;51.660;5.824;2023-06-01T08:22:11;131110.0;;;190.6;66.5
60719;BME280;46567;51.660;5.824;2023-06-01T08:27:19;131080.0;;;190.6;67.5
60719;BME280;46567;51.660;5.824;2023-06-01T08:32:11;131030.0;;;190.6;66.0
60719;BME280;46567;51.660;5.824;2023-06-01T08:37:11;130980.0;;;190.6;65.5
60719;BME280;46567;51.660;5.824;2023-06-01T08:42:15;130960.0;;;190.6;64.0
60719;BME280;46567;51.660;5.824;2023-06-01T08:47:12;130930.0;;;190.6;63.0
60719;BME280;46567;51.660;5.824;2023-06-01T08:52:12;130930.0;;;190.6;62.0
60719;BME280;46567;51.660;5.824;2023-06-01T08:57:11;130960.0;;;190.6;61.5
60719;BME280;46567;51.660;5.824;2023-06-01T09:02:11;130910.0;;;190.6;61.5
60719;BME280;46567;51.660;5.824;2023-06-01T09:07:11;130850.0;;;190.6;62.0
60719;BME280;46567;51.660;5.824;2023-06-01T09:12:30;130820.0;;;190.6;61.5
60719;BME280;46567;51.660;5.824;2023-06-01T09:17:13;130780.0;;;190.6;62.0
60719;BME280;46567;51.660;5.824;2023-06-01T09:22:11;130740.0;;;190.6;60.0
60719;BME280;46567;51.660;5.824;2023-06-01T09:27:11;130710.0;;;190.6;59.5
60719;BME280;46567;51.660;5.824;2023-06-01T09:32:18;130670.0;;;190.6;57.5
60719;BME280;46567;51.660;5.824;2023-06-01T09:37:11;130680.0;;;190.6;56.0
60719;BME280;46567;51.660;5.824;2023-06-01T09:42:11;130690.0;;;190.6;57.5
60719;BME280;46567;51.660;5.824;2023-06-01T09:47:12;130610.0;;;190.6;57.5
60719;BME280;46567;51.660;5.824;2023-06-01T09:52:12;130590.0;;;190.6;56.5
60719;BME280;46567;51.660;5.824;2023-06-01T09:57:12;130560.0;;;190.6;57.5
60719;BME280;46567;51.660;5.824;2023-06-01T10:02:12;130540.0;;;190.6;55.5
60719;BME280;46567;51.660;5.824;2023-06-01T10:07:13;130500.0;;;190.6;56.5
60719;BME280;46567;51.660;5.824;2023-06-01T10:12:11;130420.0;;;190.6;55.5
60719;BME280;46567;51.660;5.824;2023-06-01T10:17:11;130410.0;;;190.6;53.5
60719;BME280;46567;51.660;5.824;2023-06-01T10:22:11;130390.0;;;190.6;54.5
60719;BME280;46567;51.660;5.824;2023-06-01T10:27:15;130330.0;;;190.6;55.0
60719;BME280;46567;51.660;5.824;2023-06-01T10:32:41;130280.0;;;190.6;53.0
60719;BME280;46567;51.660;5.824;2023-06-01T10:37:17;130260.0;;;190.6;54.0
60719;BME280;46567;51.660;5.824;2023-06-01T10:42:39;130240.0;;;190.6;53.5
60719;BME280;46567;51.660;5.824;2023-06-01T10:47:44;130230.0;;;190.6;52.5
60719;BME280;46567;51.660;5.824;2023-06-01T10:52:26;130190.0;;;190.6;52.5
60719;BME280;46567;51.660;5.824;2023-06-01T10:57:26;130160.0;;;190.6;52.0
60719;BME280;46567;51.660;5.824;2023-06-01T11:02:11;130140.0;;;190.6;51.0
60719;BME280;46567;51.660;5.824;2023-06-01T11:07:35;130130.0;;;190.6;48.5
60719;BME280;46567;51.660;5.824;2023-06-01T11:12:11;130120.0;;;190.6;48.0
60719;BME280;46567;51.660;5.824;2023-06-01T11:17:29;130090.0;;;190.6;49.0
60719;BME280;46567;51.660;5.824;2023-06-01T11:22:11;130060.0;;;190.6;48.0
60719;BME280;46567;51.660;5.824;2023-06-01T11:27:11;130040.0;;;190.6;48.5
60719;BME280;46567;51.660;5.824;2023-06-01T11:32:12;129980.0;;;190.6;49.0
60719;BME280;46567;51.660;5.824;2023-06-01T11:37:13;129940.0;;;190.6;47.0
60719;BME280;46567;51.660;5.824;2023-06-01T11:42:12;129940.0;;;190.6;46.5
60719;BME280;46567;51.660;5.824;2023-06-01T11:47:11;129960.0;;;190.6;47.5
60719;BME280;46567;51.660;5.824;2023-06-01T11:52:11;129910.0;;;190.6;45.5
60719;BME280;46567;51.660;5.824;2023-06-01T11:57:11;129920.0;;;190.6;44.0
60719;BME280;46567;51.660;5.824;2023-06-01T12:02:21;129880.0;;;190.6;45.0
60719;BME280;46567;51.660;5.824;2023-06-01T12:07:11;129830.0;;;190.6;45.0
60719;BME280;46567;51.660;5.824;2023-06-01T12:12:11;129760.0;;;190.6;46.5
60719;BME280;46567;51.660;5.824;2023-06-01T12:17:11;129690.0;;;190.6;44.5
60719;BME280;46567;51.660;5.824;2023-06-01T12:22:11;129670.0;;;190.6;44.5
60719;BME280;46567;51.660;5.824;2023-06-01T12:27:13;129650.0;;;190.6;43.5
60719;BME280;46567;51.660;5.824;2023-06-01T12:32:12;129630.0;;;190.6;44.5
60719;BME280;46567;51.660;5.824;2023-06-01T12:37:15;129600.0;;;190.6;44.0
60719;BME280;46567;51.660;5.824;2023-06-01T12:42:11;129580.0;;;190.6;43.0
60719;BME280;46567;51.660;5.824;2023-06-01T12:47:11;129560.0;;;190.6;42.0
60719;BME280;46567;51.660;5.824;2023-06-01T12:52:11;129540.0;;;190.6;42.0
60719;BME280;46567;51.660;5.824;2023-06-01T12:57:12;129570.0;;;190.6;40.5
60719;BME280;46567;51.660;5.824;2023-06-01T13:02:11;129530.0;;;190.6;41.0
60719;BME280;46567;51.660;5.824;2023-06-01T13:07:11;129510.0;;;190.6;41.0
60719;BME280;46567;51.660;5.824;2023-06-01T13:12:11;129500.0;;;190.6;39.5
60719;BME280;46567;51.660;5.824;2023-06-01T13:17:11;129470.0;;;190.6;38.5
60719;BME280;46567;51.660;5.824;2023-06-01T13:22:11;129470.0;;;190.6;39.5
60719;BME280;46567;51.660;5.824;2023-06-01T13:27:11;129460.0;;;190.6;38.5
60719;BME280;46567;51.660;5.824;2023-06-01T13:32:11;129450.0;;;190.6;38.5
60719;BME280;46567;51.660;5.824;2023-06-01T13:37:11;129470.0;;;190.6;38.5
60719;BME280;46567;51.660;5.824;2023-06-01T13:42:11;129420.0;;;190.6;38.5
60719;BME280;46567;51.660;5.824;2023-06-01T13:47:11;129400.0;;;190.6;37.5
60719;BME280;46567;51.660;5.824;2023-06-01T13:52:11;129380.0;;;190.6;38.0
60719;BME280;46567;51.660;5.824;2023-06-01T13:57:11;129370.0;;;190.6;38.5
60719;BME280;46567;51.660;5.824;2023-06-01T14:02:11;129350.0;;;190.6;39.0
60719;BME280;46567;51.660;5.824;2023-06-01T14:07:11;129310.0;;;190.6;39.0
60719;BME280;46567;51.660;5.824;2023-06-01T14:12:11;129330.0;;;190.6;37.5
60719;BME280;46567;51.660;5.824;2023-06-01T14:17:11;129370.0;;;190.6;39.0
60719;BME280;46567;51.660;5.824;2023-06-01T14:22:11;129370.0;;;190.6;38.5
60719;BME280;46567;51.660;5.824;2023-06-01T14:27:11;129360.0;;;190.6;39.5
60719;BME280;46567;51.660;5.824;2023-06-01T14:32:11;129390.0;;;190.6;40.0
60719;BME280;46567;51.660;5.824;2023-06-01T14:37:11;129430.0;;;190.6;41.0
60719;BME280;46567;51.660;5.824;2023-06-01T14:42:11;129460.0;;;190.6;42.5
60719;BME280;46567;51.660;5.824;2023-06-01T14:47:11;129500.0;;;190.6;42.5
60719;BME280;46567;51.660;5.824;2023-06-01T14:52:11;129540.0;;;190.6;43.5
60719;BME280;46567;51.660;5.824;2023-06-01T14:57:11;129550.0;;;190.6;44.5
60719;BME280;46567;51.660;5.824;2023-06-01T15:02:11;129550.0;;;190.6;45.0
60719;BME280;46567;51.660;5.824;2023-06-01T15:07:11;129610.0;;;190.6;45.0
60719;BME280;46567;51.660;5.824;2023-06-01T15:12:11;129650.0;;;190.6;45.5
60719;BME280;46567;51.660;5.824;2023-06-01T15:17:11;129640.0;;;190.6;46.0
60719;BME280;46567;51.660;5.824;2023-06-01T15:22:11;129630.0;;;190.6;45.0
60719;BME280;46567;51.660;5.824;2023-06-01T15:27:11;129680.0;;;190.6;45.5
60719;BME280;46567;51.660;5.824;2023-06-01T15:32:11;129710.0;;;190.6;45.5
60719;BME280;46567;51.660;5.824;2023-06-01T15:37:11;129690.0;;;190.6;45.5
60719;BME280;46567;51.660;5.824;2023-06-01T15:42:11;129700.0;;;190.6;46.0
60719;BME280;46567;51.660;5.824;2023-06-01T15:47:11;129690.0;;;190.6;45.5
60719;BME280;46567;51.660;5.824;2023-06-01T15:52:11;129730.0;;;190.6;45.5
60719;BME280;46567;51.660;5.824;2023-06-01T15:57:11;129760.0;;;190.6;45.5
60719;BME280;46567;51.660;5.824;2023-06-01T16:02:11;129760.0;;;190.6;45.5
60719;BME280;46567;51.660;5.824;2023-06-01T16:07:11;129780.0;;;190.6;46.0
60719;BME280;46567;51.660;5.824;2023-06-01T16:12:11;129810.0;;;190.6;46.5
60719;BME280;46567;51.660;5.824;2023-06-01T16:17:11;129830.0;;;190.6;46.5
60719;BME280;46567;51.660;5.824;2023-06-01T16:22:11;129840.0;;;190.6;47.0
60719;BME280;46567;51.660;5.824;2023-06-01T16:27:11;129840.0;;;190.6;46.5
60719;BME280;46567;51.660;5.824;2023-06-01T16:32:11;129880.0;;;190.6;47.0
60719;BME280;46567;51.660;5.824;2023-06-01T16:37:11;129910.0;;;190.6;47.0
60719;BME280;46567;51.660;5.824;2023-06-01T16:42:11;129940.0;;;190.6;47.0
60719;BME280;46567;51.660;5.824;2023-06-01T16:47:11;129970.0;;;190.6;47.5
60719;BME280;46567;51.660;5.824;2023-06-01T16:52:11;129970.0;;;190.6;47.5
60719;BME280;46567;51.660;5.824;2023-06-01T16:57:11;129980.0;;;190.6;47.5
60719;BME280;46567;51.660;5.824;2023-06-01T17:02:11;129990.0;;;190.6;47.5
60719;BME280;46567;51.660;5.824;2023-06-01T17:07:11;130020.0;;;190.6;47.5
60719;BME280;46567;51.660;5.824;2023-06-01T17:12:11;130060.0;;;190.6;48.0
60719;BME280;46567;51.660;5.824;2023-06-01T17:17:11;130110.0;;;190.6;49.0
60719;BME280;46567;51.660;5.824;2023-06-01T17:22:11;130120.0;;;190.6;49.5
60719;BME280;46567;51.660;5.824;2023-06-01T17:27:11;130150.0;;;190.6;49.0
60719;BME280;46567;51.660;5.824;2023-06-01T17:32:11;130160.0;;;190.6;49.5
60719;BME280;46567;51.660;5.824;2023-06-01T17:37:11;130210.0;;;190.6;50.0
60719;BME280;46567;51.660;5.824;2023-06-01T17:42:11;130240.0;;;190.6;50.0
60719;BME280;46567;51.660;5.824;2023-06-01T17:47:11;130280.0;;;190.6;50.5
60719;BME280;46567;51.660;5.824;2023-06-01T17:52:11;130300.0;;;190.6;51.0
60719;BME280;46567;51.660;5.824;2023-06-01T17:57:11;130350.0;;;190.6;51.0
60719;BME280;46567;51.660;5.824;2023-06-01T18:02:11;130370.0;;;190.6;52.0
60719;BME280;46567;51.660;5.824;2023-06-01T18:07:11;130370.0;;;190.6;52.0
60719;BME280;46567;51.660;5.824;2023-06-01T18:12:11;130430.0;;;190.6;52.5
60719;BME280;46567;51.660;5.824;2023-06-01T18:17:11;130470.0;;;190.6;53.5
60719;BME280;46567;51.660;5.824;2023-06-01T18:22:11;130510.0;;;190.6;54.0
60719;BME280;46567;51.660;5.824;2023-06-01T18:27:11;130540.0;;;190.6;54.0
60719;BME280;46567;51.660;5.824;2023-06-01T18:32:11;130590.0;;;190.6;54.5
60719;BME280;46567;51.660;5.824;2023-06-01T18:37:11;130650.0;;;190.6;55.5
60719;BME280;46567;51.660;5.824;2023-06-01T18:42:11;130720.0;;;190.6;56.0
60719;BME280;46567;51.660;5.824;2023-06-01T18:47:11;130770.0;;;190.6;56.5
60719;BME280;46567;51.660;5.824;2023-06-01T18:52:11;130810.0;;;190.6;57.5
60719;BME280;46567;51.660;5.824;2023-06-01T18:57:11;130850.0;;;190.6;58.0
60719;BME280;46567;51.660;5.824;2023-06-01T19:02:11;130910.0;;;190.6;58.5
60719;BME280;46567;51.660;5.824;2023-06-01T19:07:36;130970.0;;;190.6;58.5
60719;BME280;46567;51.660;5.824;2023-06-01T19:12:11;131040.0;;;190.6;59.5
60719;BME280;46567;51.660;5.824;2023-06-01T19:17:14;131080.0;;;190.6;60.0
60719;BME280;46567;51.660;5.824;2023-06-01T19:22:12;131130.0;;;190.6;60.5
60719;BME280;46567;51.660;5.824;2023-06-01T19:27:11;131160.0;;;190.6;61.5
60719;BME280;46567;51.660;5.824;2023-06-01T19:32:11;131210.0;;;190.6;61.5
60719;BME280;46567;51.660;5.824;2023-06-01T19:37:11;131240.0;;;190.6;62.5
60719;BME280;46567;51.660;5.824;2023-06-01T19:42:34;131280.0;;;190.6;63.0
60719;BME280;46567;51.660;5.824;2023-06-01T19:47:21;131300.0;;;190.6;63.5
60719;BME280;46567;51.660;5.824;2023-06-01T19:52:11;131330.0;;;190.6;63.5
60719;BME280;46567;51.660;5.824;2023-06-01T19:57:11;131320.0;;;190.6;64.0
60719;BME280;46567;51.660;5.824;2023-06-01T20:02:44;131340.0;;;190.6;64.0
60719;BME280;46567;51.660;5.824;2023-06-01T20:07:15;131330.0;;;190.6;64.5
60719;BME280;46567;51.660;5.824;2023-06-01T20:12:11;131330.0;;;190.6;64.5
60719;BME280;46567;51.660;5.824;2023-06-01T20:17:11;131350.0;;;190.6;64.5
60719;BME280;46567;51.660;5.824;2023-06-01T20:22:11;131380.0;;;190.6;65.0
60719;BME280;46567;51.660;5.824;2023-06-01T20:27:11;131400.0;;;190.6;65.5
60719;BME280;46567;51.660;5.824;2023-06-01T20:32:11;131420.0;;;190.6;65.5
60719;BME280;46567;51.660;5.824;2023-06-01T20:37:11;131450.0;;;190.6;66.0
60719;BME280;46567;51.660;5.824;2023-06-01T20:42:11;131470.0;;;190.6;65.5
60719;BME280;46567;51.660;5.824;2023-06-01T20:47:16;131460.0;;;190.6;65.0
60719;BME280;46567;51.660;5.824;2023-06-01T20:52:11;131450.0;;;190.6;64.5
60719;BME280;46567;51.660;5.824;2023-06-01T20:57:15;131470.0;;;190.6;64.5
60719;BME280;46567;51.660;5.824;2023-06-01T21:02:13;131470.0;;;190.6;65.0
60719;BME280;46567;51.660;5.824;2023-06-01T21:07:11;131500.0;;;190.6;65.5
60719;BME280;46567;51.660;5.824;2023-06-01T21:12:11;131530.0;;;190.6;66.5
60719;BME280;46567;51.660;5.824;2023-06-01T21:17:11;131530.0;;;190.6;66.5
60719;BME280;46567;51.660;5.824;2023-06-01T21:22:11;131530.0;;;190.6;66.5
60719;BME280;46567;51.660;5.824;2023-06-01T21:27:11;131530.0;;;190.6;67.0
60719;BME280;46567;51.660;5.824;2023-06-01T21:32:11;131540.0;;;190.6;67.0
60719;BME280;46567;51.660;5.824;2023-06-01T21:37:11;131530.0;;;190.6;66.5
60719;BME280;46567;51.660;5.824;2023-06-01T21:42:11;131530.0;;;190.6;66.5
60719;BME280;46567;51.660;5.824;2023-06-01T21:47:11;131540.0;;;190.6;66.5
60719;BME280;46567;51.660;5.824;2023-06-01T21:52:11;131560.0;;;190.6;66.5
60719;BME280;46567;51.660;5.824;2023-06-01T21:57:11;131570.0;;;190.6;66.5
60719;BME280;46567;51.660;5.824;2023-06-01T22:02:11;131580.0;;;190.6;66.5
60719;BME280;46567;51.660;5.824;2023-06-01T22:07:11;131590.0;;;190.6;66.0
60719;BME280;46567;51.660;5.824;2023-06-01T22:12:11;131620.0;;;190.6;66.0
60719;BME280;46567;51.660;5.824;2023-06-01T22:17:11;131640.0;;;190.6;66.0
60719;BME280;46567;51.660;5.824;2023-06-01T22:22:11;131650.0;;;190.6;66.0
60719;BME280;46567;51.660;5.824;2023-06-01T22:27:11;131670.0;;;190.6;66.5
60719;BME280;46567;51.660;5.824;2023-06-01T22:32:11;131670.0;;;190.6;66.5
60719;BME280;46567;51.660;5.824;2023-06-01T22:37:11;131650.0;;;190.6;66.5
60719;BME280;46567;51.660;5.824;2023-06-01T22:42:11;131650.0;;;190.6;66.5
60719;BME280;46567;51.660;5.824;2023-06-01T22:47:11;131650.0;;;190.6;66.5
60719;BME280;46567;51.660;5.824;2023-06-01T22:52:11;131680.0;;;190.6;67.0
60719;BME280;46567;51.660;5.824;2023-06-01T22:57:11;131700.0;;;190.6;67.0
60719;BME280;46567;51.660;5.824;2023-06-01T23:02:11;131710.0;;;190.6;67.0
60719;BME280;46567;51.660;5.824;2023-06-01T23:07:11;131740.0;;;190.6;67.0
60719;BME280;46567;51.660;5.824;2023-06-01T23:12:11;131740.0;;;190.6;67.5
60719;BME280;46567;51.660;5.824;2023-06-01T23:17:11;131750.0;;;190.6;67.5
60719;BME280;46567;51.660;5.824;2023-06-01T23:22:11;131760.0;;;190.6;68.0
60719;BME280;46567;51.660;5.824;2023-06-01T23:27:11;131790.0;;;190.6;68.0
60719;BME280;46567;51.660;5.824;2023-06-01T23:32:11;131800.0;;;190.6;68.5
60719;BME280;46567;51.660;5.824;2023-06-01T23:37:11;131810.0;;;190.6;68.0
60719;BME280;46567;51.660;5.824;2023-06-01T23:42:11;131830.0;;;190.6;68.0
60719;BME280;46567;51.660;5.824;2023-06-01T23:47:11;131850.0;;;190.6;68.0
60719;BME280;46567;51.660;5.824;2023-06-01T23:52:11;131850.0;;;190.6;68.0
60719;BME280;46567;51.660;5.824;2023-06-01T23:57:11;131860.0;;;190.6;68.0
